createdAt,value
2022-10-26T00:00:35.551Z,2.60
2022-10-26T00:03:03.317Z,2.70
2022-10-26T00:05:33.848Z,2.97
2022-10-26T00:08:01.784Z,2.80
2022-10-26T00:10:31.566Z,3.10
2022-10-26T00:12:59.658Z,2.90
2022-10-26T00:15:27.398Z,3.00
2022-10-26T00:17:56.518Z,2.90
2022-10-26T00:20:24.282Z,2.87
2022-10-26T00:22:51.961Z,2.60
2022-10-26T00:25:19.711Z,3.27
2022-10-26T00:27:47.490Z,3.10
2022-10-26T00:30:15.759Z,3.10
2022-10-26T00:32:43.445Z,3.20
2022-10-26T00:35:22.914Z,2.77
2022-10-26T00:37:57.030Z,2.83
2022-10-26T00:40:29.449Z,3.00
2022-10-26T00:42:57.426Z,2.90
2022-10-26T00:45:27.135Z,2.80
2022-10-26T00:47:59.681Z,2.63
2022-10-26T00:50:33.051Z,2.80
2022-10-26T00:53:03.299Z,2.70
2022-10-26T00:55:42.371Z,2.77
2022-10-26T00:58:11.668Z,3.00
2022-10-26T01:00:41.822Z,2.90
2022-10-26T01:03:11.127Z,3.10
2022-10-26T01:05:44.366Z,5.17
2022-10-26T01:08:12.298Z,3.33
2022-10-26T01:10:42.763Z,3.20
2022-10-26T01:13:12.040Z,3.50
2022-10-26T01:15:49.240Z,3.27
2022-10-26T01:18:24.161Z,3.20
2022-10-26T01:21:24.323Z,2.90
2022-10-26T01:24:08.104Z,3.17
2022-10-26T01:26:54.495Z,2.93
2022-10-26T01:29:52.169Z,3.20
2022-10-26T01:32:28.003Z,3.00
2022-10-26T01:35:06.037Z,3.17
2022-10-26T01:37:40.115Z,3.07
2022-10-26T01:40:12.795Z,2.70
2022-10-26T01:42:45.656Z,3.00
2022-10-26T01:45:15.961Z,3.30
2022-10-26T01:47:47.282Z,3.33
2022-10-26T01:50:16.210Z,3.57
2022-10-26T01:52:43.915Z,3.10
2022-10-26T01:55:45.606Z,3.37
2022-10-26T01:58:30.284Z,3.10
2022-10-26T02:01:05.455Z,3.53
2022-10-26T02:03:44.362Z,3.40
2022-10-26T02:06:20.332Z,3.10
2022-10-26T02:09:02.399Z,3.37
2022-10-26T02:11:38.632Z,3.23
2022-10-26T02:16:53.480Z,3.43
2022-10-26T02:19:32.931Z,3.47
2022-10-26T02:22:07.009Z,3.20
2022-10-26T02:24:37.455Z,3.17
2022-10-26T02:27:08.540Z,3.00
2022-10-26T02:29:37.828Z,2.90
2022-10-26T02:32:08.185Z,3.43
2022-10-26T02:34:39.208Z,4.70
2022-10-26T02:37:08.957Z,3.90
2022-10-26T02:39:40.059Z,3.40
2022-10-26T02:42:10.468Z,3.17
2022-10-26T02:44:44.278Z,3.30
2022-10-26T02:47:12.769Z,3.20
2022-10-26T02:49:42.204Z,3.40
2022-10-26T02:52:17.276Z,4.03
2022-10-26T02:54:53.927Z,4.10
2022-10-26T02:57:26.054Z,4.23
2022-10-26T02:59:55.087Z,3.70
2022-10-26T03:02:23.875Z,3.30
2022-10-26T03:04:53.778Z,3.10
2022-10-26T03:07:22.730Z,3.40
2022-10-26T03:09:50.795Z,3.23
2022-10-26T03:12:18.613Z,3.00
2022-10-26T03:14:46.361Z,3.17
2022-10-26T03:17:14.099Z,3.90
2022-10-26T03:19:41.812Z,3.73
2022-10-26T03:22:10.844Z,3.60
2022-10-26T03:24:38.567Z,3.00
2022-10-26T03:27:06.287Z,6.20
2022-10-26T03:29:33.964Z,5.77
2022-10-26T03:32:01.687Z,4.50
2022-10-26T03:34:29.399Z,4.87
2022-10-26T03:36:57.167Z,4.70
2022-10-26T03:39:26.308Z,4.20
2022-10-26T03:41:55.361Z,4.23
2022-10-26T03:44:23.249Z,3.77
2022-10-26T03:46:50.939Z,3.37
2022-10-26T03:49:18.641Z,3.00
2022-10-26T03:51:46.356Z,3.23
2022-10-26T03:54:14.102Z,2.80
2022-10-26T03:56:43.149Z,3.27
2022-10-26T03:59:10.802Z,3.40
2022-10-26T04:01:38.935Z,3.13
2022-10-26T04:04:06.834Z,3.63
2022-10-26T04:06:34.648Z,3.70
2022-10-26T04:09:03.965Z,3.70
2022-10-26T04:11:31.644Z,3.40
2022-10-26T04:14:00.890Z,3.50
2022-10-26T04:16:31.169Z,3.80
2022-10-26T04:19:01.283Z,3.73
2022-10-26T04:21:29.039Z,3.53
2022-10-26T04:23:56.703Z,3.20
2022-10-26T04:26:24.385Z,3.60
2022-10-26T04:28:52.146Z,3.10
2022-10-26T04:31:21.369Z,4.07
2022-10-26T04:33:49.082Z,3.13
2022-10-26T04:36:16.786Z,3.50
2022-10-26T04:38:44.504Z,4.07
2022-10-26T04:41:12.226Z,3.70
2022-10-26T04:43:40.032Z,3.50
2022-10-26T04:46:07.701Z,3.60
2022-10-26T04:48:36.798Z,3.37
2022-10-26T04:51:04.568Z,3.60
2022-10-26T04:53:33.427Z,3.37
2022-10-26T04:56:02.375Z,3.60
2022-10-26T04:58:30.351Z,3.30
2022-10-26T05:00:58.142Z,3.80
2022-10-26T05:03:25.902Z,3.70
2022-10-26T05:05:55.005Z,4.17
2022-10-26T05:08:22.717Z,3.73
2022-10-26T05:10:50.835Z,3.67
2022-10-26T05:13:18.581Z,3.60
2022-10-26T05:15:46.309Z,3.77
2022-10-26T05:18:14.005Z,3.90
2022-10-26T05:20:41.707Z,3.90
2022-10-26T05:23:13.829Z,3.73
2022-10-26T05:25:41.546Z,3.47
2022-10-26T05:28:13.276Z,3.70
2022-10-26T05:30:41.689Z,3.50
2022-10-26T05:33:11.569Z,4.00
2022-10-26T05:35:39.472Z,4.20
2022-10-26T05:38:14.022Z,4.30
2022-10-26T05:40:48.032Z,4.07
2022-10-26T05:43:15.787Z,3.67
2022-10-26T05:45:43.551Z,3.80
2022-10-26T05:48:11.669Z,3.83
2022-10-26T05:50:39.968Z,3.47
2022-10-26T05:53:07.991Z,4.43
2022-10-26T05:55:38.152Z,3.70
2022-10-26T05:58:10.466Z,3.47
2022-10-26T06:00:48.817Z,3.57
2022-10-26T06:03:26.329Z,3.97
2022-10-26T06:05:56.472Z,4.83
2022-10-26T06:08:26.495Z,4.30
2022-10-26T06:10:59.301Z,3.90
2022-10-26T06:13:27.789Z,3.80
2022-10-26T06:16:12.502Z,4.00
2022-10-26T06:18:49.751Z,3.73
2022-10-26T06:21:30.992Z,4.10
2022-10-26T06:24:08.274Z,3.80
2022-10-26T06:26:43.356Z,3.60
2022-10-26T06:29:23.513Z,3.50
2022-10-26T06:31:51.437Z,3.53
2022-10-26T06:34:26.464Z,3.50
2022-10-26T06:36:55.954Z,3.67
2022-10-26T06:39:26.964Z,3.57
2022-10-26T06:41:57.559Z,3.63
2022-10-26T06:44:26.912Z,3.53
2022-10-26T06:47:04.008Z,3.70
2022-10-26T06:49:36.070Z,3.80
2022-10-26T06:52:11.185Z,3.70
2022-10-26T06:54:48.676Z,3.67
2022-10-26T06:57:20.131Z,3.40
2022-10-26T06:59:51.600Z,3.60
2022-10-26T07:02:19.517Z,3.50
2022-10-26T07:04:47.492Z,3.60
2022-10-26T07:07:18.498Z,3.17
2022-10-26T07:09:46.218Z,3.10
2022-10-26T07:12:13.935Z,3.23
2022-10-26T07:14:43.027Z,3.10
2022-10-26T07:17:11.164Z,3.50
2022-10-26T07:19:40.380Z,3.57
2022-10-26T07:22:08.111Z,3.07
2022-10-26T07:24:36.058Z,3.10
2022-10-26T07:27:03.764Z,3.10
2022-10-26T07:29:31.465Z,3.00
2022-10-26T07:32:00.552Z,2.93
2022-10-26T07:34:28.262Z,3.03
2022-10-26T07:36:55.955Z,2.93
2022-10-26T07:39:23.950Z,2.53
2022-10-26T07:41:51.638Z,2.73
2022-10-26T07:44:19.372Z,2.70
2022-10-26T07:46:47.090Z,2.67
2022-10-26T07:49:19.207Z,2.37
2022-10-26T07:51:47.373Z,2.87
2022-10-26T07:54:15.083Z,2.70
2022-10-26T07:56:42.812Z,2.80
2022-10-26T07:59:12.526Z,2.57
2022-10-26T08:01:40.304Z,2.60
2022-10-26T08:04:08.061Z,2.50
2022-10-26T08:06:37.385Z,2.40
2022-10-26T08:09:05.267Z,2.27
2022-10-26T08:11:33.067Z,2.10
2022-10-26T08:14:00.784Z,2.10
2022-10-26T08:16:28.518Z,2.33
2022-10-26T08:18:56.375Z,2.33
2022-10-26T08:21:36.315Z,2.27
2022-10-26T08:24:09.931Z,2.30
2022-10-26T08:26:37.692Z,2.50
2022-10-26T08:29:05.687Z,2.50
2022-10-26T08:31:33.428Z,2.20
2022-10-26T08:34:01.784Z,2.13
2022-10-26T08:36:29.888Z,2.57
2022-10-26T08:38:57.589Z,2.23
2022-10-26T08:41:36.460Z,2.40
2022-10-26T08:44:14.542Z,2.50
2022-10-26T08:46:46.059Z,1.80
2022-10-26T08:49:21.975Z,2.00
2022-10-26T08:51:51.584Z,1.90
2022-10-26T08:54:23.876Z,1.83
2022-10-26T08:56:56.480Z,1.87
2022-10-26T08:59:31.954Z,1.90
2022-10-26T09:02:01.814Z,1.67
2022-10-26T09:04:34.003Z,1.90
2022-10-26T09:07:09.235Z,1.90
2022-10-26T09:09:47.897Z,1.83
2022-10-26T09:12:26.986Z,1.70
2022-10-26T09:15:05.976Z,1.70
2022-10-26T09:17:43.869Z,1.80
2022-10-26T09:20:26.769Z,1.80
2022-10-26T09:23:00.820Z,1.77
2022-10-26T09:25:37.123Z,1.83
2022-10-26T09:28:08.392Z,1.80
2022-10-26T09:30:37.752Z,1.80
2022-10-26T09:33:15.225Z,1.70
2022-10-26T09:35:46.819Z,1.67
2022-10-26T09:38:20.499Z,2.07
2022-10-26T09:40:56.886Z,1.70
2022-10-26T09:43:31.443Z,2.53
2022-10-26T09:45:59.180Z,1.70
2022-10-26T09:48:34.475Z,1.70
2022-10-26T09:51:04.661Z,1.80
2022-10-26T09:53:33.090Z,2.10
2022-10-26T09:56:05.525Z,1.90
2022-10-26T09:58:38.872Z,1.70
2022-10-26T10:01:06.754Z,1.73
2022-10-26T10:03:34.633Z,1.70
2022-10-26T10:06:24.024Z,1.87
2022-10-26T10:09:10.375Z,1.80
2022-10-26T10:11:40.140Z,1.80
2022-10-26T10:14:13.957Z,1.90
2022-10-26T10:16:42.328Z,1.90
2022-10-26T10:19:23.860Z,1.80
2022-10-26T10:21:53.652Z,1.60
2022-10-26T10:24:25.048Z,1.93
2022-10-26T10:27:01.912Z,2.10
2022-10-26T10:29:33.048Z,2.00
2022-10-26T10:32:02.168Z,1.63
2022-10-26T10:34:32.064Z,2.17
2022-10-26T10:37:01.502Z,2.07
2022-10-26T10:39:39.930Z,2.37
2022-10-26T10:42:17.510Z,1.87
2022-10-26T10:44:48.476Z,1.90
2022-10-26T10:47:22.389Z,2.20
2022-10-26T10:49:57.139Z,1.63
2022-10-26T10:52:28.223Z,2.17
2022-10-26T10:55:09.223Z,1.77
2022-10-26T10:57:44.259Z,2.13
2022-10-26T11:00:14.208Z,1.90
2022-10-26T11:03:00.640Z,1.87
2022-10-26T11:05:48.007Z,1.80
2022-10-26T11:08:21.662Z,1.93
2022-10-26T11:10:54.935Z,2.17
2022-10-26T11:13:27.423Z,2.00
2022-10-26T11:16:02.762Z,1.97
2022-10-26T11:18:34.855Z,1.70
2022-10-26T11:21:12.805Z,1.97
2022-10-26T11:23:47.364Z,1.80
2022-10-26T11:26:18.928Z,1.70
2022-10-26T11:28:50.772Z,1.97
2022-10-26T11:31:25.081Z,2.00
2022-10-26T11:34:06.641Z,1.83
2022-10-26T11:36:37.358Z,1.80
2022-10-26T11:39:14.914Z,1.57
2022-10-26T11:41:50.810Z,1.87
2022-10-26T11:44:23.183Z,1.63
2022-10-26T11:46:57.364Z,1.70
2022-10-26T11:49:30.693Z,1.90
2022-10-26T11:52:07.758Z,1.90
2022-10-26T11:54:40.172Z,1.80
2022-10-26T11:57:08.243Z,2.00
2022-10-26T11:59:41.447Z,1.97
2022-10-26T12:02:16.245Z,1.63
2022-10-26T12:04:48.719Z,1.63
2022-10-26T12:07:23.411Z,1.60
2022-10-26T12:09:52.123Z,2.20
2022-10-26T12:12:26.262Z,1.80
2022-10-26T12:15:04.267Z,1.83
2022-10-26T12:17:40.092Z,2.00
2022-10-26T12:20:22.040Z,2.10
2022-10-26T12:22:49.982Z,2.00
2022-10-26T12:25:22.718Z,2.10
2022-10-26T12:27:55.340Z,1.70
2022-10-26T12:30:29.464Z,1.83
2022-10-26T12:33:00.299Z,2.00
2022-10-26T12:35:46.595Z,1.80
2022-10-26T12:38:58.005Z,2.33
2022-10-26T12:41:27.507Z,2.20
2022-10-26T12:44:35.227Z,2.20
2022-10-26T12:47:02.947Z,2.07
2022-10-26T12:50:00.564Z,2.10
2022-10-26T12:52:52.947Z,2.10
2022-10-26T12:56:11.407Z,2.17
2022-10-26T12:59:12.898Z,1.90
2022-10-26T13:01:57.685Z,1.87
2022-10-26T13:04:47.250Z,1.90
2022-10-26T13:07:20.746Z,2.13
2022-10-26T13:09:57.677Z,1.80
2022-10-26T13:12:26.925Z,2.30
2022-10-26T13:15:02.574Z,2.10
2022-10-26T13:17:32.438Z,2.10
2022-10-26T13:20:02.289Z,2.03
2022-10-26T13:22:30.706Z,1.90
2022-10-26T13:25:02.538Z,2.17
2022-10-26T13:27:58.823Z,2.30
2022-10-26T13:30:46.661Z,2.60
2022-10-26T13:33:37.384Z,2.20
2022-10-26T13:36:16.838Z,2.20
2022-10-26T13:38:47.920Z,2.30
2022-10-26T13:41:28.288Z,2.03
2022-10-26T13:43:56.335Z,2.20
2022-10-26T13:46:28.280Z,1.90
2022-10-26T13:49:02.444Z,2.43
2022-10-26T13:51:41.643Z,2.42
2022-10-26T13:54:20.499Z,2.38
2022-10-26T13:57:02.520Z,2.20
2022-10-26T13:59:32.839Z,1.90
2022-10-26T14:02:07.871Z,2.17
2022-10-26T14:04:35.615Z,2.22
2022-10-26T14:07:03.368Z,2.03
2022-10-26T14:09:31.956Z,3.50
2022-10-26T14:12:02.372Z,5.70
2022-10-26T14:14:33.127Z,5.70
2022-10-26T14:17:01.199Z,6.73
2022-10-26T14:19:31.060Z,4.67
2022-10-26T14:21:59.759Z,2.93
2022-10-26T14:24:45.579Z,2.93
2022-10-26T14:27:18.256Z,2.03
2022-10-26T14:29:58.370Z,2.30
2022-10-26T14:32:35.610Z,2.70
2022-10-26T14:35:03.607Z,2.90
2022-10-26T14:37:39.943Z,3.20
2022-10-26T14:40:14.683Z,2.47
2022-10-26T14:42:46.864Z,2.70
2022-10-26T14:45:29.805Z,2.70
2022-10-26T14:48:06.735Z,2.03
2022-10-26T14:50:36.450Z,2.10
2022-10-26T14:53:13.049Z,2.00
2022-10-26T14:55:47.412Z,2.30
2022-10-26T14:58:24.116Z,2.07
2022-10-26T15:01:36.046Z,1.90
2022-10-26T15:04:06.238Z,1.93
2022-10-26T15:06:43.295Z,2.20
2022-10-26T15:09:32.863Z,2.20
2022-10-26T15:12:02.841Z,2.10
2022-10-26T15:14:32.365Z,2.80
2022-10-26T15:17:01.131Z,2.37
2022-10-26T15:19:29.382Z,2.27
2022-10-26T15:21:57.658Z,2.30
2022-10-26T15:24:38.473Z,2.10
2022-10-26T15:27:14.424Z,1.73
2022-10-26T15:29:45.456Z,2.30
2022-10-26T15:32:29.699Z,2.37
2022-10-26T15:35:24.034Z,2.40
2022-10-26T15:37:52.977Z,2.23
2022-10-26T15:40:21.203Z,2.60
2022-10-26T15:42:52.162Z,3.17
2022-10-26T15:45:23.141Z,4.50
2022-10-26T15:47:52.849Z,3.60
2022-10-26T15:50:22.394Z,3.67
2022-10-26T15:52:50.929Z,3.93
2022-10-26T15:55:18.819Z,4.00
2022-10-26T15:57:46.891Z,4.00
2022-10-26T16:00:17.883Z,3.60
2022-10-26T16:02:47.403Z,3.13
2022-10-26T16:05:17.025Z,3.13
2022-10-26T16:07:47.864Z,3.30
2022-10-26T16:10:21.338Z,3.10
2022-10-26T16:12:50.183Z,2.83
2022-10-26T16:15:20.205Z,2.70
2022-10-26T16:17:49.726Z,2.40
2022-10-26T16:20:20.171Z,2.43
2022-10-26T16:22:49.233Z,2.90
2022-10-26T16:25:19.311Z,2.73
2022-10-26T16:27:49.331Z,2.50
2022-10-26T16:30:18.022Z,2.60
2022-10-26T16:32:45.922Z,2.47
2022-10-26T16:35:15.414Z,2.53
2022-10-26T16:37:43.375Z,2.40
2022-10-26T16:40:11.935Z,2.33
2022-10-26T16:42:43.688Z,2.60
2022-10-26T16:45:12.461Z,3.20
2022-10-26T16:47:40.463Z,4.60
2022-10-26T16:50:09.691Z,2.73
2022-10-26T16:52:39.534Z,2.90
2022-10-26T16:55:09.073Z,2.50
2022-10-26T16:57:37.659Z,2.40
2022-10-26T17:00:06.773Z,2.43
2022-10-26T17:02:34.687Z,2.30
2022-10-26T17:05:05.971Z,2.30
2022-10-26T17:07:35.623Z,2.13
2022-10-26T17:10:05.539Z,2.50
2022-10-26T17:12:33.534Z,2.30
2022-10-26T17:15:01.510Z,2.47
2022-10-26T17:17:29.245Z,2.80
2022-10-26T17:19:57.312Z,2.60
2022-10-26T17:22:24.984Z,2.73
2022-10-26T17:24:52.763Z,2.40
2022-10-26T17:27:23.002Z,2.70
2022-10-26T17:29:50.743Z,2.47
2022-10-26T17:32:18.620Z,2.60
2022-10-26T17:34:46.346Z,3.17
2022-10-26T17:37:14.055Z,2.70
2022-10-26T17:39:41.795Z,2.67
2022-10-26T17:42:09.546Z,2.50
2022-10-26T17:44:39.246Z,3.17
2022-10-26T17:47:07.132Z,2.97
2022-10-26T17:49:36.152Z,3.00
2022-10-26T17:52:05.925Z,2.70
2022-10-26T17:54:33.794Z,2.83
2022-10-26T17:57:01.958Z,2.57
2022-10-26T17:59:29.896Z,2.40
2022-10-26T18:01:59.094Z,2.80
2022-10-26T18:04:26.896Z,2.37
2022-10-26T18:06:54.596Z,3.30
2022-10-26T18:09:22.445Z,2.90
2022-10-26T18:11:53.420Z,2.70
2022-10-26T18:14:23.572Z,2.80
2022-10-26T18:16:51.586Z,2.70
2022-10-26T18:19:20.983Z,2.77
2022-10-26T18:21:48.669Z,2.40
2022-10-26T18:24:16.399Z,2.77
2022-10-26T18:26:44.104Z,2.40
2022-10-26T18:29:13.454Z,2.97
2022-10-26T18:31:41.248Z,2.60
2022-10-26T18:34:08.959Z,3.00
2022-10-26T18:39:10.760Z,2.53
2022-10-26T18:41:38.532Z,3.00
2022-10-26T18:44:06.240Z,2.80
2022-10-26T18:46:40.155Z,3.30
2022-10-26T18:49:08.072Z,3.50
2022-10-26T18:51:35.889Z,3.30
2022-10-26T18:54:05.087Z,3.00
2022-10-26T18:56:32.766Z,3.10
2022-10-26T18:59:01.384Z,3.07
2022-10-26T19:01:31.211Z,2.90
2022-10-26T19:04:00.410Z,3.03
2022-10-26T19:06:30.074Z,2.77
2022-10-26T19:08:58.100Z,2.73
2022-10-26T19:11:29.679Z,2.70
2022-10-26T19:13:57.779Z,2.57
2022-10-26T19:16:44.716Z,2.63
2022-10-26T19:19:14.071Z,2.47
2022-10-26T19:21:41.869Z,2.80
2022-10-26T19:24:13.909Z,2.60
2022-10-26T19:26:44.066Z,3.20
2022-10-26T19:29:15.222Z,2.67
2022-10-26T19:31:43.997Z,2.90
2022-10-26T19:34:13.031Z,2.70
2022-10-26T19:36:45.118Z,2.97
2022-10-26T19:39:14.207Z,2.90
2022-10-26T19:41:43.456Z,3.03
2022-10-26T19:44:13.018Z,2.70
2022-10-26T19:46:40.847Z,3.10
2022-10-26T19:49:08.920Z,3.30
2022-10-26T19:51:36.775Z,3.10
2022-10-26T19:54:06.693Z,3.37
2022-10-26T19:56:35.394Z,3.07
2022-10-26T19:59:04.776Z,5.87
2022-10-26T20:01:32.683Z,6.03
2022-10-26T20:04:02.220Z,8.80
2022-10-26T20:06:30.669Z,9.20
2022-10-26T20:08:58.456Z,7.93
2022-10-26T20:11:26.291Z,7.30
2022-10-26T20:13:55.360Z,6.27
2022-10-26T20:16:24.704Z,4.30
2022-10-26T20:18:52.389Z,3.83
2022-10-26T20:21:21.525Z,3.87
2022-10-26T20:23:49.231Z,3.30
2022-10-26T20:26:19.238Z,3.50
2022-10-26T20:28:48.975Z,4.07
2022-10-26T20:31:16.987Z,4.17
2022-10-26T20:33:46.082Z,3.80
2022-10-26T20:36:13.841Z,3.80
2022-10-26T20:38:42.101Z,3.57
2022-10-26T20:41:12.776Z,3.30
2022-10-26T20:43:41.482Z,3.10
2022-10-26T20:46:11.417Z,3.40
2022-10-26T20:48:39.654Z,2.87
2022-10-26T20:51:17.191Z,3.40
2022-10-26T20:53:51.861Z,3.53
2022-10-26T20:56:24.831Z,2.90
2022-10-26T20:58:54.983Z,3.40
2022-10-26T21:01:26.029Z,3.50
2022-10-26T21:03:54.323Z,3.10
2022-10-26T21:06:24.247Z,2.93
2022-10-26T21:08:52.730Z,3.20
2022-10-26T21:11:21.631Z,3.57
2022-10-26T21:13:50.256Z,3.13
2022-10-26T21:16:18.632Z,2.93
2022-10-26T21:18:46.508Z,3.13
2022-10-26T21:21:14.213Z,3.00
2022-10-26T21:23:43.439Z,3.23
2022-10-26T21:26:11.199Z,3.30
2022-10-26T21:28:41.439Z,3.17
2022-10-26T21:31:11.205Z,3.10
2022-10-26T21:33:39.351Z,3.00
2022-10-26T21:36:11.994Z,2.90
2022-10-26T21:38:41.018Z,3.07
2022-10-26T21:41:11.970Z,2.90
2022-10-26T21:43:41.321Z,3.07
2022-10-26T21:46:09.747Z,2.90
2022-10-26T21:48:37.474Z,3.30
2022-10-26T21:51:07.154Z,3.30
2022-10-26T21:53:35.058Z,2.60
2022-10-26T21:56:03.025Z,2.90
2022-10-26T21:58:32.299Z,2.20
2022-10-26T22:01:07.481Z,2.53
2022-10-26T22:03:36.343Z,2.33
2022-10-26T22:06:05.093Z,2.63
2022-10-26T22:08:33.722Z,2.93
2022-10-26T22:11:06.815Z,2.70
2022-10-26T22:13:36.880Z,2.80
2022-10-26T22:16:06.453Z,3.20
2022-10-26T22:18:35.720Z,2.90
2022-10-26T22:21:04.506Z,3.30
2022-10-26T22:23:34.363Z,2.90
2022-10-26T22:26:04.030Z,3.17
2022-10-26T22:28:33.027Z,3.20
2022-10-26T22:31:03.534Z,3.00
2022-10-26T22:33:31.570Z,3.60
2022-10-26T22:36:04.867Z,2.90
2022-10-26T22:38:32.664Z,2.93
2022-10-26T22:41:00.535Z,2.70
2022-10-26T22:43:28.267Z,2.80
2022-10-26T22:46:05.103Z,3.00
2022-10-26T22:48:33.218Z,2.60
2022-10-26T22:51:06.219Z,2.67
2022-10-26T22:53:33.956Z,2.90
2022-10-26T22:56:02.060Z,2.87
2022-10-26T22:58:29.986Z,2.67
2022-10-26T23:01:05.017Z,3.10
2022-10-26T23:03:33.015Z,3.10
2022-10-26T23:06:00.730Z,2.93
2022-10-26T23:08:28.808Z,3.43
2022-10-26T23:11:00.080Z,3.30
2022-10-26T23:13:28.356Z,3.37
2022-10-26T23:15:56.460Z,2.83
2022-10-26T23:18:25.562Z,3.20
2022-10-26T23:20:53.361Z,3.10
2022-10-26T23:23:21.047Z,2.90
2022-10-26T23:25:48.736Z,2.73
2022-10-26T23:28:16.465Z,3.23
2022-10-26T23:30:45.934Z,3.03
2022-10-26T23:33:13.696Z,2.63
2022-10-26T23:35:43.247Z,2.70
2022-10-26T23:38:10.935Z,3.20
2022-10-26T23:40:38.808Z,2.90
2022-10-26T23:43:06.452Z,3.00
2022-10-26T23:45:34.142Z,3.10
2022-10-26T23:48:01.807Z,2.93
2022-10-26T23:50:29.511Z,3.17
2022-10-26T23:52:58.528Z,2.60
2022-10-26T23:55:26.242Z,3.20
2022-10-26T23:57:53.951Z,2.83
